sensor_id;sensor_type;location;lat;lon;timestamp;P1;durP1;ratioP1;P2;durP2;ratioP2
78169;SDS011;67412;49.892;14.490;2023-04-01T00:00:59;5.70;;;0.98;;
78169;SDS011;67412;49.892;14.490;2023-04-01T00:03:26;4.15;;;0.82;;
78169;SDS011;67412;49.892;14.490;2023-04-01T00:05:53;1.30;;;0.50;;
78169;SDS011;67412;49.892;14.490;2023-04-01T00:08:20;2.42;;;0.70;;
78169;SDS011;67412;49.892;14.490;2023-04-01T00:10:45;2.80;;;0.73;;
78169;SDS011;67412;49.892;14.490;2023-04-01T00:13:11;4.72;;;0.85;;
78169;SDS011;67412;49.892;14.490;2023-04-01T00:15:36;2.45;;;0.70;;
78169;SDS011;67412;49.892;14.490;2023-04-01T00:18:02;3.20;;;0.80;;
78169;SDS011;67412;49.892;14.490;2023-04-01T00:20:27;4.97;;;0.95;;
78169;SDS011;67412;49.892;14.490;2023-04-01T00:22:53;1.00;;;0.35;;
78169;SDS011;67412;49.892;14.490;2023-04-01T00:25:18;2.85;;;0.65;;
78169;SDS011;67412;49.892;14.490;2023-04-01T00:27:44;2.03;;;0.50;;
78169;SDS011;67412;49.892;14.490;2023-04-01T00:30:10;3.45;;;0.75;;
78169;SDS011;67412;49.892;14.490;2023-04-01T00:32:36;1.25;;;0.60;;
78169;SDS011;67412;49.892;14.490;2023-04-01T00:35:02;2.13;;;0.63;;
78169;SDS011;67412;49.892;14.490;2023-04-01T00:37:29;2.55;;;0.50;;
78169;SDS011;67412;49.892;14.490;2023-04-01T00:39:54;1.92;;;0.50;;
78169;SDS011;67412;49.892;14.490;2023-04-01T00:42:21;5.40;;;0.90;;
78169;SDS011;67412;49.892;14.490;2023-04-01T00:44:53;2.38;;;0.50;;
78169;SDS011;67412;49.892;14.490;2023-04-01T00:47:19;1.48;;;0.55;;
78169;SDS011;67412;49.892;14.490;2023-04-01T00:49:47;2.47;;;0.55;;
78169;SDS011;67412;49.892;14.490;2023-04-01T00:52:16;0.80;;;0.40;;
78169;SDS011;67412;49.892;14.490;2023-04-01T00:54:46;0.50;;;0.30;;
78169;SDS011;67412;49.892;14.490;2023-04-01T00:57:19;0.85;;;0.45;;
78169;SDS011;67412;49.892;14.490;2023-04-01T00:59:49;0.63;;;0.40;;
78169;SDS011;67412;49.892;14.490;2023-04-01T01:02:18;1.35;;;0.20;;
78169;SDS011;67412;49.892;14.490;2023-04-01T01:04:44;2.08;;;0.40;;
78169;SDS011;67412;49.892;14.490;2023-04-01T01:09:47;0.63;;;0.22;;
78169;SDS011;67412;49.892;14.490;2023-04-01T01:12:20;2.47;;;0.50;;
78169;SDS011;67412;49.892;14.490;2023-04-01T01:15:05;2.00;;;0.40;;
78169;SDS011;67412;49.892;14.490;2023-04-01T01:26:22;0.30;;;0.30;;
78169;SDS011;67412;49.892;14.490;2023-04-01T01:34:38;1.70;;;0.50;;
78169;SDS011;67412;49.892;14.490;2023-04-01T01:37:11;0.20;;;0.20;;
78169;SDS011;67412;49.892;14.490;2023-04-01T01:39:39;1.65;;;0.30;;
78169;SDS011;67412;49.892;14.490;2023-04-01T01:42:11;3.15;;;0.88;;
78169;SDS011;67412;49.892;14.490;2023-04-01T01:44:40;1.17;;;0.35;;
78169;SDS011;67412;49.892;14.490;2023-04-01T01:47:07;0.70;;;0.20;;
78169;SDS011;67412;49.892;14.490;2023-04-01T01:49:34;1.17;;;0.43;;
78169;SDS011;67412;49.892;14.490;2023-04-01T01:52:01;1.45;;;0.80;;
78169;SDS011;67412;49.892;14.490;2023-04-01T01:54:26;1.40;;;0.45;;
78169;SDS011;67412;49.892;14.490;2023-04-01T01:56:54;0.82;;;0.30;;
78169;SDS011;67412;49.892;14.490;2023-04-01T01:59:24;0.20;;;0.20;;
78169;SDS011;67412;49.892;14.490;2023-04-01T02:01:53;2.38;;;0.43;;
78169;SDS011;67412;49.892;14.490;2023-04-01T02:04:21;0.22;;;0.20;;
78169;SDS011;67412;49.892;14.490;2023-04-01T02:09:28;0.57;;;0.32;;
78169;SDS011;67412;49.892;14.490;2023-04-01T02:11:59;1.17;;;0.30;;
78169;SDS011;67412;49.892;14.490;2023-04-01T02:14:30;0.73;;;0.40;;
78169;SDS011;67412;49.892;14.490;2023-04-01T02:17:02;1.73;;;0.43;;
78169;SDS011;67412;49.892;14.490;2023-04-01T02:19:33;0.77;;;0.30;;
78169;SDS011;67412;49.892;14.490;2023-04-01T02:22:04;3.63;;;0.32;;
78169;SDS011;67412;49.892;14.490;2023-04-01T02:24:35;1.45;;;0.20;;
78169;SDS011;67412;49.892;14.490;2023-04-01T02:27:03;3.67;;;0.68;;
78169;SDS011;67412;49.892;14.490;2023-04-01T02:29:29;0.40;;;0.32;;
78169;SDS011;67412;49.892;14.490;2023-04-01T02:31:54;1.02;;;0.45;;
78169;SDS011;67412;49.892;14.490;2023-04-01T02:34:21;1.48;;;0.35;;
78169;SDS011;67412;49.892;14.490;2023-04-01T02:36:48;0.98;;;0.43;;
78169;SDS011;67412;49.892;14.490;2023-04-01T02:39:15;4.05;;;2.05;;
78169;SDS011;67412;49.892;14.490;2023-04-01T02:41:41;1.65;;;0.45;;
78169;SDS011;67412;49.892;14.490;2023-04-01T02:44:09;2.42;;;0.50;;
78169;SDS011;67412;49.892;14.490;2023-04-01T02:46:35;2.67;;;0.50;;
78169;SDS011;67412;49.892;14.490;2023-04-01T02:49:01;0.75;;;0.50;;
78169;SDS011;67412;49.892;14.490;2023-04-01T02:51:26;3.25;;;0.47;;
78169;SDS011;67412;49.892;14.490;2023-04-01T02:53:51;0.82;;;0.40;;
78169;SDS011;67412;49.892;14.490;2023-04-01T02:56:16;0.85;;;0.28;;
78169;SDS011;67412;49.892;14.490;2023-04-01T02:58:42;0.80;;;0.35;;
78169;SDS011;67412;49.892;14.490;2023-04-01T03:01:07;3.22;;;0.60;;
78169;SDS011;67412;49.892;14.490;2023-04-01T03:03:33;1.27;;;0.50;;
78169;SDS011;67412;49.892;14.490;2023-04-01T03:06:04;0.90;;;0.28;;
78169;SDS011;67412;49.892;14.490;2023-04-01T03:08:30;2.05;;;0.55;;
78169;SDS011;67412;49.892;14.490;2023-04-01T03:10:55;2.75;;;0.30;;
78169;SDS011;67412;49.892;14.490;2023-04-01T03:13:20;8.70;;;0.80;;
78169;SDS011;67412;49.892;14.490;2023-04-01T03:15:46;2.42;;;0.68;;
78169;SDS011;67412;49.892;14.490;2023-04-01T03:18:11;1.40;;;0.40;;
78169;SDS011;67412;49.892;14.490;2023-04-01T03:20:36;1.42;;;0.47;;
78169;SDS011;67412;49.892;14.490;2023-04-01T03:23:01;2.75;;;0.70;;
78169;SDS011;67412;49.892;14.490;2023-04-01T03:25:27;2.10;;;0.55;;
78169;SDS011;67412;49.892;14.490;2023-04-01T03:27:53;1.80;;;0.30;;
78169;SDS011;67412;49.892;14.490;2023-04-01T03:30:19;1.52;;;0.50;;
78169;SDS011;67412;49.892;14.490;2023-04-01T03:32:44;1.52;;;0.50;;
78169;SDS011;67412;49.892;14.490;2023-04-01T03:35:09;5.40;;;0.73;;
78169;SDS011;67412;49.892;14.490;2023-04-01T03:37:35;0.50;;;0.32;;
78169;SDS011;67412;49.892;14.490;2023-04-01T03:40:00;4.15;;;0.73;;
78169;SDS011;67412;49.892;14.490;2023-04-01T03:42:26;1.65;;;0.60;;
78169;SDS011;67412;49.892;14.490;2023-04-01T03:44:51;6.05;;;0.63;;
78169;SDS011;67412;49.892;14.490;2023-04-01T03:47:16;3.22;;;0.80;;
78169;SDS011;67412;49.892;14.490;2023-04-01T03:49:42;1.40;;;0.40;;
78169;SDS011;67412;49.892;14.490;2023-04-01T03:52:10;3.10;;;0.80;;
78169;SDS011;67412;49.892;14.490;2023-04-01T03:54:36;1.55;;;0.70;;
78169;SDS011;67412;49.892;14.490;2023-04-01T03:57:01;3.45;;;1.00;;
78169;SDS011;67412;49.892;14.490;2023-04-01T03:59:27;2.70;;;0.60;;
78169;SDS011;67412;49.892;14.490;2023-04-01T04:01:52;1.23;;;0.50;;
78169;SDS011;67412;49.892;14.490;2023-04-01T04:04:17;1.95;;;0.45;;
78169;SDS011;67412;49.892;14.490;2023-04-01T04:06:43;4.82;;;0.80;;
78169;SDS011;67412;49.892;14.490;2023-04-01T04:09:08;1.60;;;0.50;;
78169;SDS011;67412;49.892;14.490;2023-04-01T04:11:33;2.28;;;0.82;;
78169;SDS011;67412;49.892;14.490;2023-04-01T04:13:59;5.25;;;0.50;;
78169;SDS011;67412;49.892;14.490;2023-04-01T04:16:24;1.27;;;0.50;;
78169;SDS011;67412;49.892;14.490;2023-04-01T04:18:50;3.92;;;0.60;;
78169;SDS011;67412;49.892;14.490;2023-04-01T04:21:16;5.13;;;0.90;;
78169;SDS011;67412;49.892;14.490;2023-04-01T04:23:42;1.65;;;0.70;;
78169;SDS011;67412;49.892;14.490;2023-04-01T04:26:09;0.95;;;0.32;;
78169;SDS011;67412;49.892;14.490;2023-04-01T04:28:36;1.42;;;0.47;;
78169;SDS011;67412;49.892;14.490;2023-04-01T04:31:02;2.80;;;0.45;;
78169;SDS011;67412;49.892;14.490;2023-04-01T04:33:29;4.43;;;1.27;;
78169;SDS011;67412;49.892;14.490;2023-04-01T04:35:55;2.50;;;0.68;;
78169;SDS011;67412;49.892;14.490;2023-04-01T04:38:21;3.38;;;1.05;;
78169;SDS011;67412;49.892;14.490;2023-04-01T04:40:47;3.42;;;0.75;;
78169;SDS011;67412;49.892;14.490;2023-04-01T04:43:13;3.75;;;0.60;;
78169;SDS011;67412;49.892;14.490;2023-04-01T04:45:40;2.65;;;0.60;;
78169;SDS011;67412;49.892;14.490;2023-04-01T04:48:07;2.85;;;0.50;;
78169;SDS011;67412;49.892;14.490;2023-04-01T04:50:34;2.70;;;0.70;;
78169;SDS011;67412;49.892;14.490;2023-04-01T04:52:59;3.60;;;0.73;;
78169;SDS011;67412;49.892;14.490;2023-04-01T04:55:24;2.25;;;0.63;;
78169;SDS011;67412;49.892;14.490;2023-04-01T04:57:50;4.70;;;0.88;;
78169;SDS011;67412;49.892;14.490;2023-04-01T05:00:15;6.00;;;0.90;;
78169;SDS011;67412;49.892;14.490;2023-04-01T05:02:41;4.30;;;0.95;;
78169;SDS011;67412;49.892;14.490;2023-04-01T05:05:06;4.40;;;0.80;;
78169;SDS011;67412;49.892;14.490;2023-04-01T05:07:33;3.35;;;0.68;;
78169;SDS011;67412;49.892;14.490;2023-04-01T05:09:58;4.75;;;0.73;;
78169;SDS011;67412;49.892;14.490;2023-04-01T05:12:24;2.60;;;0.63;;
78169;SDS011;67412;49.892;14.490;2023-04-01T05:14:49;3.40;;;0.70;;
78169;SDS011;67412;49.892;14.490;2023-04-01T05:17:14;2.65;;;0.68;;
78169;SDS011;67412;49.892;14.490;2023-04-01T05:19:40;2.05;;;0.82;;
78169;SDS011;67412;49.892;14.490;2023-04-01T05:22:05;5.05;;;0.80;;
78169;SDS011;67412;49.892;14.490;2023-04-01T05:24:31;0.52;;;0.30;;
78169;SDS011;67412;49.892;14.490;2023-04-01T05:26:57;2.20;;;0.60;;
78169;SDS011;67412;49.892;14.490;2023-04-01T05:29:23;2.38;;;0.80;;
78169;SDS011;67412;49.892;14.490;2023-04-01T05:31:49;3.33;;;0.50;;
78169;SDS011;67412;49.892;14.490;2023-04-01T05:34:14;3.45;;;0.70;;
78169;SDS011;67412;49.892;14.490;2023-04-01T05:36:40;1.90;;;0.40;;
78169;SDS011;67412;49.892;14.490;2023-04-01T05:39:06;6.78;;;0.93;;
78169;SDS011;67412;49.892;14.490;2023-04-01T05:41:34;1.70;;;0.60;;
78169;SDS011;67412;49.892;14.490;2023-04-01T05:44:00;4.53;;;0.73;;
78169;SDS011;67412;49.892;14.490;2023-04-01T05:46:25;7.57;;;1.00;;
78169;SDS011;67412;49.892;14.490;2023-04-01T05:48:50;2.53;;;0.63;;
78169;SDS011;67412;49.892;14.490;2023-04-01T05:51:16;1.48;;;0.50;;
78169;SDS011;67412;49.892;14.490;2023-04-01T05:53:42;3.45;;;0.60;;
78169;SDS011;67412;49.892;14.490;2023-04-01T05:56:08;3.88;;;0.70;;
78169;SDS011;67412;49.892;14.490;2023-04-01T05:58:34;3.08;;;0.90;;
78169;SDS011;67412;49.892;14.490;2023-04-01T06:01:08;4.60;;;0.85;;
78169;SDS011;67412;49.892;14.490;2023-04-01T06:03:35;2.35;;;0.70;;
78169;SDS011;67412;49.892;14.490;2023-04-01T06:06:01;2.83;;;1.05;;
78169;SDS011;67412;49.892;14.490;2023-04-01T06:08:27;2.13;;;0.70;;
78169;SDS011;67412;49.892;14.490;2023-04-01T06:14:10;1.20;;;0.55;;
78169;SDS011;67412;49.892;14.490;2023-04-01T06:22:02;0.70;;;0.40;;
78169;SDS011;67412;49.892;14.490;2023-04-01T06:40:44;2.17;;;0.35;;
78169;SDS011;67412;49.892;14.490;2023-04-01T06:46:15;2.58;;;0.52;;
78169;SDS011;67412;49.892;14.490;2023-04-01T06:51:33;3.13;;;0.60;;
78169;SDS011;67412;49.892;14.490;2023-04-01T06:54:09;3.05;;;0.70;;
78169;SDS011;67412;49.892;14.490;2023-04-01T06:56:42;1.00;;;0.25;;
78169;SDS011;67412;49.892;14.490;2023-04-01T06:59:22;0.95;;;0.20;;
78169;SDS011;67412;49.892;14.490;2023-04-01T07:01:52;0.28;;;0.28;;
78169;SDS011;67412;49.892;14.490;2023-04-01T07:04:31;1.65;;;0.40;;
78169;SDS011;67412;49.892;14.490;2023-04-01T07:07:04;3.53;;;0.40;;
78169;SDS011;67412;49.892;14.490;2023-04-01T07:09:38;0.52;;;0.32;;
78169;SDS011;67412;49.892;14.490;2023-04-01T07:12:15;1.52;;;0.30;;
78169;SDS011;67412;49.892;14.490;2023-04-01T07:15:09;0.68;;;0.20;;
78169;SDS011;67412;49.892;14.490;2023-04-01T07:17:43;5.18;;;0.85;;
78169;SDS011;67412;49.892;14.490;2023-04-01T07:20:30;2.25;;;0.40;;
78169;SDS011;67412;49.892;14.490;2023-04-01T07:22:58;3.28;;;0.73;;
78169;SDS011;67412;49.892;14.490;2023-04-01T07:25:27;1.85;;;0.60;;
78169;SDS011;67412;49.892;14.490;2023-04-01T07:28:00;1.27;;;0.52;;
78169;SDS011;67412;49.892;14.490;2023-04-01T07:30:35;1.60;;;0.50;;
78169;SDS011;67412;49.892;14.490;2023-04-01T07:33:39;0.35;;;0.20;;
78169;SDS011;67412;49.892;14.490;2023-04-01T07:49:20;2.35;;;1.02;;
78169;SDS011;67412;49.892;14.490;2023-04-01T07:52:01;1.55;;;0.40;;
78169;SDS011;67412;49.892;14.490;2023-04-01T07:54:38;2.45;;;0.40;;
78169;SDS011;67412;49.892;14.490;2023-04-01T08:14:20;1.70;;;0.40;;
78169;SDS011;67412;49.892;14.490;2023-04-01T08:16:58;0.93;;;0.30;;
78169;SDS011;67412;49.892;14.490;2023-04-01T08:19:43;0.73;;;0.13;;
78169;SDS011;67412;49.892;14.490;2023-04-01T08:22:18;3.15;;;0.60;;
78169;SDS011;67412;49.892;14.490;2023-04-01T08:24:48;1.83;;;0.38;;
78169;SDS011;67412;49.892;14.490;2023-04-01T08:29:47;0.10;;;0.10;;
78169;SDS011;67412;49.892;14.490;2023-04-01T08:32:22;1.80;;;0.45;;
78169;SDS011;67412;49.892;14.490;2023-04-01T08:38:04;0.98;;;0.28;;
78169;SDS011;67412;49.892;14.490;2023-04-01T08:43:27;2.17;;;0.50;;
78169;SDS011;67412;49.892;14.490;2023-04-01T08:51:18;1.17;;;0.30;;
78169;SDS011;67412;49.892;14.490;2023-04-01T09:10:37;1.95;;;0.28;;
78169;SDS011;67412;49.892;14.490;2023-04-01T09:40:21;1.75;;;0.50;;
78169;SDS011;67412;49.892;14.490;2023-04-01T09:46:18;1.73;;;0.43;;
78169;SDS011;67412;49.892;14.490;2023-04-01T09:54:27;1.63;;;0.52;;
78169;SDS011;67412;49.892;14.490;2023-04-01T10:05:21;0.65;;;0.40;;
78169;SDS011;67412;49.892;14.490;2023-04-01T10:19:05;1.50;;;0.55;;
78169;SDS011;67412;49.892;14.490;2023-04-01T10:22:10;0.95;;;0.28;;
78169;SDS011;67412;49.892;14.490;2023-04-01T10:49:56;1.23;;;0.40;;
78169;SDS011;67412;49.892;14.490;2023-04-01T10:58:05;0.95;;;0.17;;
78169;SDS011;67412;49.892;14.490;2023-04-01T11:00:40;0.47;;;0.20;;
78169;SDS011;67412;49.892;14.490;2023-04-01T11:28:48;2.25;;;0.40;;
78169;SDS011;67412;49.892;14.490;2023-04-01T11:31:54;0.85;;;0.35;;
78169;SDS011;67412;49.892;14.490;2023-04-01T11:39:39;1.67;;;0.28;;
78169;SDS011;67412;49.892;14.490;2023-04-01T11:45:41;2.80;;;0.47;;
78169;SDS011;67412;49.892;14.490;2023-04-01T11:48:07;0.15;;;0.13;;
78169;SDS011;67412;49.892;14.490;2023-04-01T11:53:20;0.30;;;0.10;;
78169;SDS011;67412;49.892;14.490;2023-04-01T11:59:27;2.13;;;0.40;;
78169;SDS011;67412;49.892;14.490;2023-04-01T12:02:29;1.10;;;0.40;;
78169;SDS011;67412;49.892;14.490;2023-04-01T12:21:28;3.47;;;0.82;;
78169;SDS011;67412;49.892;14.490;2023-04-01T12:26:52;1.88;;;0.55;;
78169;SDS011;67412;49.892;14.490;2023-04-01T12:35:23;1.90;;;0.38;;
78169;SDS011;67412;49.892;14.490;2023-04-01T12:46:53;0.88;;;0.50;;
78169;SDS011;67412;49.892;14.490;2023-04-01T12:49:39;0.90;;;0.50;;
78169;SDS011;67412;49.892;14.490;2023-04-01T13:00:30;3.28;;;0.68;;
78169;SDS011;67412;49.892;14.490;2023-04-01T13:15:14;3.17;;;0.90;;
78169;SDS011;67412;49.892;14.490;2023-04-01T13:28:38;2.35;;;0.80;;
78169;SDS011;67412;49.892;14.490;2023-04-01T13:42:24;2.13;;;0.82;;
78169;SDS011;67412;49.892;14.490;2023-04-01T13:50:23;1.20;;;0.40;;
78169;SDS011;67412;49.892;14.490;2023-04-01T13:52:54;1.20;;;0.45;;
78169;SDS011;67412;49.892;14.490;2023-04-01T14:01:49;3.45;;;0.73;;
78169;SDS011;67412;49.892;14.490;2023-04-01T14:10:12;2.88;;;0.60;;
78169;SDS011;67412;49.892;14.490;2023-04-01T14:12:58;1.70;;;0.47;;
78169;SDS011;67412;49.892;14.490;2023-04-01T14:15:46;2.38;;;0.47;;
78169;SDS011;67412;49.892;14.490;2023-04-01T14:26:31;1.98;;;0.43;;
78169;SDS011;67412;49.892;14.490;2023-04-01T14:32:23;3.22;;;0.82;;
78169;SDS011;67412;49.892;14.490;2023-04-01T14:35:11;0.70;;;0.40;;
78169;SDS011;67412;49.892;14.490;2023-04-01T14:40:40;0.63;;;0.40;;
78169;SDS011;67412;49.892;14.490;2023-04-01T14:43:14;0.93;;;0.38;;
78169;SDS011;67412;49.892;14.490;2023-04-01T14:48:32;2.22;;;0.57;;
78169;SDS011;67412;49.892;14.490;2023-04-01T14:56:39;2.25;;;0.70;;
78169;SDS011;67412;49.892;14.490;2023-04-01T15:07:06;3.50;;;0.90;;
78169;SDS011;67412;49.892;14.490;2023-04-01T15:09:39;2.45;;;0.80;;
78169;SDS011;67412;49.892;14.490;2023-04-01T15:26:33;1.90;;;0.73;;
78169;SDS011;67412;49.892;14.490;2023-04-01T15:34:57;2.05;;;0.52;;
78169;SDS011;67412;49.892;14.490;2023-04-01T15:40:22;2.50;;;0.85;;
78169;SDS011;67412;49.892;14.490;2023-04-01T15:48:01;3.23;;;0.90;;
78169;SDS011;67412;49.892;14.490;2023-04-01T15:50:50;1.30;;;0.57;;
78169;SDS011;67412;49.892;14.490;2023-04-01T15:53:28;2.90;;;0.98;;
78169;SDS011;67412;49.892;14.490;2023-04-01T16:13:18;3.47;;;0.90;;
78169;SDS011;67412;49.892;14.490;2023-04-01T16:15:54;2.53;;;0.80;;
78169;SDS011;67412;49.892;14.490;2023-04-01T16:24:20;2.60;;;0.90;;
78169;SDS011;67412;49.892;14.490;2023-04-01T16:27:16;1.92;;;0.85;;
78169;SDS011;67412;49.892;14.490;2023-04-01T16:38:08;3.15;;;1.05;;
78169;SDS011;67412;49.892;14.490;2023-04-01T16:40:42;4.25;;;0.95;;
78169;SDS011;67412;49.892;14.490;2023-04-01T16:46:12;2.03;;;0.60;;
78169;SDS011;67412;49.892;14.490;2023-04-01T16:48:57;1.35;;;0.75;;
78169;SDS011;67412;49.892;14.490;2023-04-01T16:51:24;2.78;;;0.47;;
78169;SDS011;67412;49.892;14.490;2023-04-01T16:53:52;2.83;;;0.68;;
78169;SDS011;67412;49.892;14.490;2023-04-01T16:56:28;1.98;;;0.50;;
78169;SDS011;67412;49.892;14.490;2023-04-01T16:59:06;1.92;;;0.60;;
78169;SDS011;67412;49.892;14.490;2023-04-01T17:01:45;1.98;;;0.60;;
78169;SDS011;67412;49.892;14.490;2023-04-01T17:06:46;1.15;;;0.50;;
78169;SDS011;67412;49.892;14.490;2023-04-01T17:11:57;2.22;;;0.55;;
78169;SDS011;67412;49.892;14.490;2023-04-01T17:17:08;0.90;;;0.60;;
78169;SDS011;67412;49.892;14.490;2023-04-01T17:31:18;2.80;;;0.95;;
78169;SDS011;67412;49.892;14.490;2023-04-01T17:45:01;0.30;;;0.30;;
78169;SDS011;67412;49.892;14.490;2023-04-01T17:53:18;1.88;;;0.70;;
78169;SDS011;67412;49.892;14.490;2023-04-01T17:58:47;0.95;;;0.40;;
78169;SDS011;67412;49.892;14.490;2023-04-01T18:01:47;2.95;;;0.68;;
78169;SDS011;67412;49.892;14.490;2023-04-01T18:07:25;3.78;;;1.13;;
78169;SDS011;67412;49.892;14.490;2023-04-01T18:26:18;6.13;;;1.45;;
78169;SDS011;67412;49.892;14.490;2023-04-01T18:34:16;6.75;;;2.05;;
78169;SDS011;67412;49.892;14.490;2023-04-01T18:36:58;6.20;;;1.85;;
78169;SDS011;67412;49.892;14.490;2023-04-01T18:39:42;5.32;;;1.70;;
78169;SDS011;67412;49.892;14.490;2023-04-01T18:42:16;4.85;;;1.50;;
78169;SDS011;67412;49.892;14.490;2023-04-01T18:44:46;4.57;;;1.38;;
78169;SDS011;67412;49.892;14.490;2023-04-01T18:50:42;4.38;;;1.42;;
78169;SDS011;67412;49.892;14.490;2023-04-01T18:53:18;4.95;;;1.50;;
78169;SDS011;67412;49.892;14.490;2023-04-01T19:10:40;4.95;;;1.35;;
78169;SDS011;67412;49.892;14.490;2023-04-01T19:13:20;3.78;;;1.30;;
78169;SDS011;67412;49.892;14.490;2023-04-01T19:29:56;3.92;;;1.42;;
78169;SDS011;67412;49.892;14.490;2023-04-01T19:38:24;3.25;;;1.20;;
78169;SDS011;67412;49.892;14.490;2023-04-01T19:43:50;2.50;;;0.90;;
78169;SDS011;67412;49.892;14.490;2023-04-01T19:46:48;4.05;;;1.10;;
78169;SDS011;67412;49.892;14.490;2023-04-01T19:54:22;2.67;;;1.02;;
78169;SDS011;67412;49.892;14.490;2023-04-01T19:57:00;2.78;;;1.15;;
78169;SDS011;67412;49.892;14.490;2023-04-01T20:14:26;4.75;;;1.60;;
78169;SDS011;67412;49.892;14.490;2023-04-01T20:17:20;3.30;;;1.20;;
78169;SDS011;67412;49.892;14.490;2023-04-01T20:19:51;4.75;;;1.40;;
78169;SDS011;67412;49.892;14.490;2023-04-01T20:25:08;5.40;;;1.25;;
78169;SDS011;67412;49.892;14.490;2023-04-01T20:27:44;4.20;;;1.40;;
78169;SDS011;67412;49.892;14.490;2023-04-01T20:33:21;3.28;;;1.60;;
78169;SDS011;67412;49.892;14.490;2023-04-01T20:35:47;4.13;;;1.92;;
78169;SDS011;67412;49.892;14.490;2023-04-01T20:49:23;9.60;;;3.05;;
78169;SDS011;67412;49.892;14.490;2023-04-01T20:57:58;4.60;;;1.33;;
78169;SDS011;67412;49.892;14.490;2023-04-01T21:03:23;3.95;;;1.48;;
78169;SDS011;67412;49.892;14.490;2023-04-01T21:11:53;3.55;;;1.60;;
78169;SDS011;67412;49.892;14.490;2023-04-01T21:51:02;4.68;;;1.38;;
78169;SDS011;67412;49.892;14.490;2023-04-01T21:54:07;4.88;;;1.85;;
78169;SDS011;67412;49.892;14.490;2023-04-01T21:59:48;5.72;;;1.50;;
78169;SDS011;67412;49.892;14.490;2023-04-01T22:08:43;4.68;;;1.40;;
78169;SDS011;67412;49.892;14.490;2023-04-01T22:11:18;3.22;;;1.17;;
78169;SDS011;67412;49.892;14.490;2023-04-01T22:17:08;3.10;;;1.10;;
78169;SDS011;67412;49.892;14.490;2023-04-01T22:25:46;4.53;;;1.73;;
78169;SDS011;67412;49.892;14.490;2023-04-01T22:31:22;9.52;;;2.97;;
78169;SDS011;67412;49.892;14.490;2023-04-01T22:42:31;9.82;;;4.00;;
78169;SDS011;67412;49.892;14.490;2023-04-01T22:56:22;7.07;;;2.70;;
78169;SDS011;67412;49.892;14.490;2023-04-01T22:59:08;7.18;;;2.25;;
78169;SDS011;67412;49.892;14.490;2023-04-01T23:01:41;6.63;;;2.67;;
78169;SDS011;67412;49.892;14.490;2023-04-01T23:04:12;5.15;;;2.00;;
78169;SDS011;67412;49.892;14.490;2023-04-01T23:06:43;4.43;;;1.75;;
78169;SDS011;67412;49.892;14.490;2023-04-01T23:09:14;6.57;;;1.90;;
78169;SDS011;67412;49.892;14.490;2023-04-01T23:11:55;5.35;;;1.50;;
78169;SDS011;67412;49.892;14.490;2023-04-01T23:30:00;6.43;;;2.15;;
78169;SDS011;67412;49.892;14.490;2023-04-01T23:32:26;5.88;;;1.90;;
78169;SDS011;67412;49.892;14.490;2023-04-01T23:34:53;7.18;;;2.33;;
78169;SDS011;67412;49.892;14.490;2023-04-01T23:37:21;8.90;;;3.13;;
78169;SDS011;67412;49.892;14.490;2023-04-01T23:39:54;6.95;;;2.28;;
78169;SDS011;67412;49.892;14.490;2023-04-01T23:42:23;5.80;;;2.40;;
78169;SDS011;67412;49.892;14.490;2023-04-01T23:44:49;6.35;;;2.25;;
78169;SDS011;67412;49.892;14.490;2023-04-01T23:47:21;5.45;;;1.67;;
78169;SDS011;67412;49.892;14.490;2023-04-01T23:52:24;5.13;;;1.67;;
78169;SDS011;67412;49.892;14.490;2023-04-01T23:54:52;3.45;;;1.33;;
78169;SDS011;67412;49.892;14.490;2023-04-01T23:57:20;5.05;;;1.52;;
